Xin Dan Dong — BPBY — position and weather

sailwx.info

Track history (hours):
 
Tides and Currents Weather Stations Pressure Air Temp Water Temp Dewpoint Dewpoint Depression Visibility Wind Speed Wind Dir Waves Ship Positions

Xin Dan Dong

Last reported at 2016-May-26 03:12 UTC. Time now 2016-May-27 04:25 UTC.
Position N 37°10' E 122°44'.

Length 263 m; draft 12.2 m.

Type: Ship. MMSI: 413153000.

Date/timePositionNaut miles runAvg speedWind from/ knotsBaromVisibWave heightAir tempDewpointWater temp
2016-May-26 03:12N 37°10' E 122°44'812.5
2016-May-26 02:33N 37°18' E 122°46'1211.7
2016-May-26 01:33N 37°30' E 122°43'1611.7
2016-May-26 00:12N 37°44' E 122°34'912.0
2016-May-25 23:30N 37°50' E 122°26'1213.2
2016-May-25 22:33N 37°56' E 122°13'1413.5
2016-May-25 21:33N 38°03' E 121°58'1413.6
2016-May-25 20:30N 38°11' E 121°43'128 9.1
2016-May-25 06:24N 40°18' E 122°02'3 1.8
2016-May-25 04:32N 40°16' E 122°06'0 0.0
2016-May-25 02:10N 40°16' E 122°06'0 0.0
2016-May-25 01:10N 40°16' E 122°06'0 0.0
2016-May-25 00:28N 40°16' E 122°06'0 0.0
2016-May-24 23:22N 40°16' E 122°06'0 0.0
2016-May-24 22:22N 40°16' E 122°06'0 0.0
2016-May-24 21:28N 40°16' E 122°06'0 0.0
2016-May-24 20:28N 40°16' E 122°06'0 0.0
2016-May-24 19:28N 40°16' E 122°06'0 0.0
2016-May-24 18:22N 40°16' E 122°06'0 0.0
2016-May-24 17:10N 40°16' E 122°06'0 0.0
2016-May-24 15:28N 40°16' E 122°06'0 0.0
2016-May-24 13:22N 40°16' E 122°06'0 0.0
2016-May-24 12:22N 40°16' E 122°06'0 0.0
2016-May-24 11:16N 40°16' E 122°06'0 0.0
2016-May-24 10:04N 40°16' E 122°06'0 0.0
2016-May-24 09:28N 40°16' E 122°06'0 0.0
2016-May-24 08:22N 40°16' E 122°06'0 0.0
2016-May-24 06:22N 40°16' E 122°06'0 0.0
2016-May-24 03:13N 40°16' E 122°06'3 5.2
2016-May-24 02:32N 40°18' E 122°01'113 9.9
2016-May-23 15:09N 38°35' E 121°01'712.5
2016-May-23 14:33N 38°30' E 121°08'6712.8
2016-May-23 09:17N 37°57' E 122°23'5611.7
2016-May-23 04:33N 37°14' E 123°08'1212.2
2016-May-23 03:33N 37°02' E 123°12'  
2016-May-20 18:30N 25°13' E 119°59'1212.2
2016-May-20 17:32N 25°05' E 119°50'1212.2
2016-May-20 16:32N 24°57' E 119°40'1412.5
2016-May-20 15:26N 24°47' E 119°29'1312.8
2016-May-20 14:24N 24°39' E 119°18'1113.2
2016-May-20 13:33N 24°31' E 119°09'1713.6
2016-May-20 12:18N 24°20' E 118°56'4113.9
2016-May-20 09:23N 23°52' E 118°23'24312.2
2016-May-19 13:32N 22°01' E 114°28'3611.2
2016-May-19 10:18N 22°05' E 113°49'912.5
2016-May-19 09:33N 22°14' E 113°48'1211.8
2016-May-19 08:33N 22°26' E 113°45'14 0.6
2016-May-18 08:25N 22°39' E 113°41'1310.4
2016-May-18 07:10N 22°27' E 113°45'914.1
2016-May-18 06:33N 22°18' E 113°48'37 1.2
2016-May-16 23:34N 21°59' E 114°22'  
Track history (hours):
 
Tides and Currents Weather Stations Pressure Air Temp Water Temp Dewpoint Dewpoint Depression Visibility Wind Speed Wind Dir Waves Ship Positions

Xin Dan Dong

Last reported at 2016-May-26 03:12 UTC. Time now 2016-May-27 04:25 UTC.
Position N 37°10' E 122°44'.

Length 263 m; draft 12.2 m.

Type: Ship. MMSI: 413153000.

Date/timePositionNaut miles runAvg speedWind from/ knotsBaromVisibWave heightAir tempDewpointWater temp
2016-May-26 03:12N 37°10' E 122°44'812.5
2016-May-26 02:33N 37°18' E 122°46'1211.7
2016-May-26 01:33N 37°30' E 122°43'1611.7
2016-May-26 00:12N 37°44' E 122°34'912.0
2016-May-25 23:30N 37°50' E 122°26'1213.2
2016-May-25 22:33N 37°56' E 122°13'1413.5
2016-May-25 21:33N 38°03' E 121°58'1413.6
2016-May-25 20:30N 38°11' E 121°43'128 9.1
2016-May-25 06:24N 40°18' E 122°02'3 1.8
2016-May-25 04:32N 40°16' E 122°06'0 0.0
2016-May-25 02:10N 40°16' E 122°06'0 0.0
2016-May-25 01:10N 40°16' E 122°06'0 0.0
2016-May-25 00:28N 40°16' E 122°06'0 0.0
2016-May-24 23:22N 40°16' E 122°06'0 0.0
2016-May-24 22:22N 40°16' E 122°06'0 0.0
2016-May-24 21:28N 40°16' E 122°06'0 0.0
2016-May-24 20:28N 40°16' E 122°06'0 0.0
2016-May-24 19:28N 40°16' E 122°06'0 0.0
2016-May-24 18:22N 40°16' E 122°06'0 0.0
2016-May-24 17:10N 40°16' E 122°06'0 0.0
2016-May-24 15:28N 40°16' E 122°06'0 0.0
2016-May-24 13:22N 40°16' E 122°06'0 0.0
2016-May-24 12:22N 40°16' E 122°06'0 0.0
2016-May-24 11:16N 40°16' E 122°06'0 0.0
2016-May-24 10:04N 40°16' E 122°06'0 0.0
2016-May-24 09:28N 40°16' E 122°06'0 0.0
2016-May-24 08:22N 40°16' E 122°06'0 0.0
2016-May-24 06:22N 40°16' E 122°06'0 0.0
2016-May-24 03:13N 40°16' E 122°06'3 5.2
2016-May-24 02:32N 40°18' E 122°01'113 9.9
2016-May-23 15:09N 38°35' E 121°01'712.5
2016-May-23 14:33N 38°30' E 121°08'6712.8
2016-May-23 09:17N 37°57' E 122°23'5611.7
2016-May-23 04:33N 37°14' E 123°08'1212.2
2016-May-23 03:33N 37°02' E 123°12'  
2016-May-20 18:30N 25°13' E 119°59'1212.2
2016-May-20 17:32N 25°05' E 119°50'1212.2
2016-May-20 16:32N 24°57' E 119°40'1412.5
2016-May-20 15:26N 24°47' E 119°29'1312.8
2016-May-20 14:24N 24°39' E 119°18'1113.2
2016-May-20 13:33N 24°31' E 119°09'1713.6
2016-May-20 12:18N 24°20' E 118°56'4113.9
2016-May-20 09:23N 23°52' E 118°23'24312.2
2016-May-19 13:32N 22°01' E 114°28'3611.2
2016-May-19 10:18N 22°05' E 113°49'912.5
2016-May-19 09:33N 22°14' E 113°48'1211.8
2016-May-19 08:33N 22°26' E 113°45'14 0.6
2016-May-18 08:25N 22°39' E 113°41'1310.4
2016-May-18 07:10N 22°27' E 113°45'914.1
2016-May-18 06:33N 22°18' E 113°48'37 1.2
2016-May-16 23:34N 21°59' E 114°22'  

Dump ship's entire track history